Time;durP1;ratioP1;P1;durP2;ratioP2;P2;SDS_P1;SDS_P2;PMS_P1;PMS_P2;Temp;Humidity;BMP_temperature;BMP_pressure;BME280_temperature;BME280_humidity;BME280_pressure;Samples;Min_cycle;Max_cycle;Signal;HPM_P1;HPM_P2
2022/08/24 00:00:09;;;;;;;;;;;;;;;27.13;58.24;154483.16;1718535;83;20220;-68
2022/08/24 00:02:36;;;;;;;;;;;;;;;27.16;57.80;154491.03;1718803;83;20706;-60
2022/08/24 00:05:03;;;;;;;;;;;;;;;27.12;58.13;154480.53;1715344;83;20169;-61
2022/08/24 00:07:30;;;;;;;;;;;;;;;27.25;57.96;154511.98;1691526;84;20206;-61
2022/08/24 00:09:57;;;;;;;;;;;;;;;27.34;57.24;154535.63;1691456;83;20175;-61
2022/08/24 00:12:24;;;;;;;;;;;;;;;27.34;56.64;154534.30;1709178;83;20208;-61
2022/08/24 00:14:51;;;;;;;;;;;;;;;27.27;56.40;154517.23;1718471;83;22057;-61
2022/08/24 00:17:19;;;;;;;;;;;;;;;27.18;56.01;154494.92;1718244;83;20252;-60
2022/08/24 00:19:46;;;;;;;;;;;;;;;27.10;56.02;154473.97;1714083;83;20599;-60
2022/08/24 00:22:13;;;;;;;;;;;;;;;27.10;55.98;154473.97;1718756;83;20176;-59
2022/08/24 00:24:40;;;;;;;;;;;;;;;27.10;55.76;154473.97;1718371;83;20173;-60
2022/08/24 00:27:06;;;;;;;;;;;;;;;26.97;55.92;154441.19;1718726;83;21212;-61
2022/08/24 00:29:35;;;;;;;;;;;;;;;26.77;56.29;154391.28;1718526;83;20124;-60
2022/08/24 00:32:01;;;;;;;;;;;;;;;26.59;56.61;154346.70;1718300;83;20477;-60
2022/08/24 00:34:28;;;;;;;;;;;;;;;26.52;56.90;154328.36;1718258;83;20176;-61
2022/08/24 00:36:55;;;;;;;;;;;;;;;26.55;56.97;154336.22;1718465;83;20200;-60
2022/08/24 00:39:22;;;;;;;;;;;;;;;26.67;56.57;154366.38;1718643;83;21411;-60
2022/08/24 00:41:49;;;;;;;;;;;;;;;26.77;56.34;154390.00;1718305;83;20157;-60
2022/08/24 00:44:17;;;;;;;;;;;;;;;26.84;55.81;154409.64;1719241;83;20441;-60
2022/08/24 00:46:59;;;;;;;;;;;;;;;26.86;55.46;154414.97;1718232;83;20329;-60
2022/08/24 00:49:35;;;;;;;;;;;;;;;26.90;55.08;154424.13;1718144;83;20757;-62
2022/08/24 00:52:14;;;;;;;;;;;;;;;26.90;55.00;154422.83;1718184;83;21130;-61
2022/08/24 00:54:46;;;;;;;;;;;;;;;26.84;54.99;154409.64;1718343;83;20607;-61
2022/08/24 00:57:16;;;;;;;;;;;;;;;26.83;55.19;154405.72;1718400;83;20224;-61
2022/08/24 00:59:46;;;;;;;;;;;;;;;26.92;54.88;154428.08;1718439;83;20519;-61
2022/08/24 01:02:16;;;;;;;;;;;;;;;26.82;54.79;154404.39;1718732;83;20133;-60
2022/08/24 01:04:47;;;;;;;;;;;;;;;26.65;55.13;154359.84;1718414;83;21136;-60
2022/08/24 01:07:15;;;;;;;;;;;;;;;26.48;55.64;154317.87;1663654;86;20192;-60
2022/08/24 01:09:42;;;;;;;;;;;;;;;26.40;55.98;154296.88;1663182;86;20196;-60
2022/08/24 01:12:08;;;;;;;;;;;;;;;26.46;56.16;154312.64;1693842;83;20510;-61
2022/08/24 01:14:35;;;;;;;;;;;;;;;26.56;55.85;154337.55;1718485;83;20954;-61
2022/08/24 01:19:50;;;;;;;;;;;;;;;26.76;55.31;154388.67;1729241;81;20203;-62
2022/08/24 01:22:35;;;;;;;;;;;;;;;26.87;54.65;154417.59;1735666;82;20207;-61
2022/08/24 01:25:02;;;;;;;;;;;;;;;26.88;54.36;154420.22;1724691;82;20207;-62
2022/08/24 01:27:29;;;;;;;;;;;;;;;27.01;54.13;154451.66;1735790;82;20179;-61
2022/08/24 01:29:57;;;;;;;;;;;;;;;27.08;53.33;154468.72;1735788;81;21319;-61
2022/08/24 01:32:26;;;;;;;;;;;;;;;26.95;53.27;154437.22;1735549;81;20998;-68
2022/08/24 01:34:55;;;;;;;;;;;;;;;26.70;53.61;154372.95;1736080;82;32472;-69
2022/08/24 01:37:21;;;;;;;;;;;;;;;26.42;54.38;154302.16;1736063;82;20571;-69
2022/08/24 01:39:49;;;;;;;;;;;;;;;26.28;54.75;154268.06;1735727;81;20331;-68
2022/08/24 01:42:16;;;;;;;;;;;;;;;26.24;55.10;154257.58;1736011;82;22825;-68
2022/08/24 01:44:44;;;;;;;;;;;;;;;26.27;54.87;154265.44;1735964;82;20605;-69
2022/08/24 01:47:11;;;;;;;;;;;;;;;26.18;55.06;154241.81;1735953;82;20208;-69
2022/08/24 01:49:41;;;;;;;;;;;;;;;26.13;55.00;154228.66;1735939;82;20171;-69
2022/08/24 01:52:08;;;;;;;;;;;;;;;26.09;54.76;154219.52;1735756;82;20210;-69
2022/08/24 01:54:35;;;;;;;;;;;;;;;26.05;54.79;154207.72;1736070;82;21252;-69
2022/08/24 01:57:02;;;;;;;;;;;;;;;26.05;54.48;154207.72;1735841;82;20448;-68
2022/08/24 01:59:30;;;;;;;;;;;;;;;26.02;54.43;154202.47;1735812;82;20184;-61
2022/08/24 02:02:03;;;;;;;;;;;;;;;25.97;54.39;154189.33;1735682;82;20208;-61
2022/08/24 02:04:32;;;;;;;;;;;;;;;25.92;54.19;154176.23;1736130;82;20172;-62
2022/08/24 02:06:59;;;;;;;;;;;;;;;25.83;54.45;154152.66;1708263;82;21899;-61
2022/08/24 02:09:27;;;;;;;;;;;;;;;25.77;54.47;154138.23;1705461;84;20207;-60
2022/08/24 02:11:54;;;;;;;;;;;;;;;25.73;54.64;154129.05;1719824;82;20464;-61
2022/08/24 02:14:22;;;;;;;;;;;;;;;25.73;54.59;154129.05;1735634;81;20176;-61
2022/08/24 02:16:50;;;;;;;;;;;;;;;25.79;54.48;154142.19;1735210;82;20227;-61
2022/08/24 02:19:18;;;;;;;;;;;;;;;25.89;54.30;154168.37;1709275;82;21142;-61
2022/08/24 02:21:45;;;;;;;;;;;;;;;25.98;53.91;154192.00;1690345;84;20315;-61
2022/08/24 02:24:13;;;;;;;;;;;;;;;26.01;53.49;154198.52;1690587;84;20226;-61
2022/08/24 02:26:40;;;;;;;;;;;;;;;25.97;53.55;154188.05;1690924;84;20210;-61
2022/08/24 02:29:06;;;;;;;;;;;;;;;25.96;53.51;154186.70;1691532;84;20250;-60
2022/08/24 02:31:34;;;;;;;;;;;;;;;25.93;53.51;154178.84;1691142;84;21216;-60
2022/08/24 02:34:02;;;;;;;;;;;;;;;25.92;53.48;154174.94;1691673;84;20185;-61
2022/08/24 02:36:30;;;;;;;;;;;;;;;25.81;53.46;154147.42;1691407;84;20560;-61
2022/08/24 02:38:58;;;;;;;;;;;;;;;25.59;53.70;154093.66;1691384;84;20202;-60
2022/08/24 02:41:26;;;;;;;;;;;;;;;25.38;54.24;154039.91;1691270;83;20498;-60
2022/08/24 02:43:54;;;;;;;;;;;;;;;25.28;54.50;154015.02;1691148;84;22158;-60
2022/08/24 02:46:22;;;;;;;;;;;;;;;25.26;54.72;154008.45;1691210;84;20214;-61
2022/08/24 02:48:49;;;;;;;;;;;;;;;25.31;54.57;154021.53;1667261;84;20187;-61
2022/08/24 02:51:25;;;;;;;;;;;;;;;25.36;54.27;154033.34;1691372;84;20214;-61
2022/08/24 02:53:52;;;;;;;;;;;;;;;25.38;54.03;154038.58;1691314;83;20238;-61
2022/08/24 02:56:21;;;;;;;;;;;;;;;25.36;53.47;154034.67;1691437;84;21229;-60
2022/08/24 02:58:47;;;;;;;;;;;;;;;25.26;53.41;154009.78;1691285;83;20187;-60
2022/08/24 03:01:15;;;;;;;;;;;;;;;25.18;53.56;153990.13;1691405;84;20209;-61
2022/08/24 03:03:42;;;;;;;;;;;;;;;25.17;53.47;153987.50;1691117;84;20491;-61
2022/08/24 03:06:09;;;;;;;;;;;;;;;25.24;53.41;154003.22;1691265;84;20171;-61
2022/08/24 03:08:36;;;;;;;;;;;;;;;25.30;52.95;154020.25;1691260;84;21210;-61
2022/08/24 03:11:05;;;;;;;;;;;;;;;25.31;52.69;154021.53;1694663;83;20187;-59
2022/08/24 03:13:31;;;;;;;;;;;;;;;25.27;52.59;154011.06;1718164;83;20177;-61
2022/08/24 03:15:58;;;;;;;;;;;;;;;25.16;52.85;153984.88;1718337;83;20180;-61
2022/08/24 03:18:26;;;;;;;;;;;;;;;25.12;53.12;153973.08;1712759;82;20314;-60
2022/08/24 03:20:54;;;;;;;;;;;;;;;25.14;53.19;153978.31;1717375;83;20640;-60
2022/08/24 03:23:20;;;;;;;;;;;;;;;25.16;53.21;153983.55;1717275;83;20225;-60
2022/08/24 03:25:47;;;;;;;;;;;;;;;25.20;53.58;153994.06;1717171;83;20493;-60
2022/08/24 03:28:14;;;;;;;;;;;;;;;25.24;53.80;154003.22;1717223;82;20515;-61
2022/08/24 03:30:42;;;;;;;;;;;;;;;25.29;53.74;154016.30;1717423;83;20233;-61
2022/08/24 03:33:09;;;;;;;;;;;;;;;25.35;53.90;154030.72;1717057;83;21294;-61
2022/08/24 03:35:37;;;;;;;;;;;;;;;25.44;53.70;154055.62;1717018;83;20464;-61
2022/08/24 03:38:04;;;;;;;;;;;;;;;25.54;53.40;154080.56;1717480;82;20201;-60
2022/08/24 03:40:32;;;;;;;;;;;;;;;25.56;53.52;154085.81;1717028;83;20220;-61
2022/08/24 03:42:59;;;;;;;;;;;;;;;25.48;54.02;154063.53;1717054;82;20263;-62
2022/08/24 03:45:27;;;;;;;;;;;;;;;25.44;54.60;154055.62;1717209;83;20646;-61
2022/08/24 03:47:54;;;;;;;;;;;;;;;25.62;54.73;154100.23;1717066;83;20490;-61
2022/08/24 03:50:22;;;;;;;;;;;;;;;25.74;54.76;154131.66;1717449;83;20216;-61
2022/08/24 03:52:49;;;;;;;;;;;;;;;25.79;55.27;154142.19;1717098;83;20229;-62
2022/08/24 03:55:17;;;;;;;;;;;;;;;25.93;55.48;154178.84;1717467;82;20192;-61
2022/08/24 03:57:43;;;;;;;;;;;;;;;26.02;55.62;154202.47;1717076;83;21222;-61
2022/08/24 04:00:11;;;;;;;;;;;;;;;26.11;55.78;154224.75;1717032;82;20478;-61
2022/08/24 04:02:45;;;;;;;;;;;;;;;26.22;55.80;154252.34;1716689;83;20140;-61
2022/08/24 04:05:14;;;;;;;;;;;;;;;26.21;55.85;154249.72;1714325;82;20174;-61
2022/08/24 04:07:41;;;;;;;;;;;;;;;26.23;56.05;154253.63;1702577;84;20165;-61
2022/08/24 04:10:11;;;;;;;;;;;;;;;26.26;55.41;154262.81;1702443;84;22162;-61
2022/08/24 04:12:37;;;;;;;;;;;;;;;26.26;55.71;154262.81;1727094;82;20182;-61
2022/08/24 04:15:05;;;;;;;;;;;;;;;26.28;55.99;154268.06;1735069;82;20444;-68
2022/08/24 04:17:34;;;;;;;;;;;;;;;26.36;56.16;154286.39;1734913;81;20147;-69
2022/08/24 04:20:01;;;;;;;;;;;;;;;26.31;56.51;154274.63;1706451;82;20152;-69
2022/08/24 04:22:31;;;;;;;;;;;;;;;26.24;56.04;154257.58;1704703;83;21241;-67
2022/08/24 04:24:58;;;;;;;;;;;;;;;26.21;56.25;154249.72;1705171;83;20328;-69
2022/08/24 04:27:25;;;;;;;;;;;;;;;26.21;56.55;154248.38;1704869;84;20173;-68
2022/08/24 04:29:52;;;;;;;;;;;;;;;26.27;56.50;154264.09;1704956;84;20491;-68
2022/08/24 04:32:19;;;;;;;;;;;;;;;26.32;56.44;154277.25;1704918;83;20192;-69
2022/08/24 04:34:46;;;;;;;;;;;;;;;26.44;56.63;154307.41;1704848;83;21196;-69
2022/08/24 04:37:13;;;;;;;;;;;;;;;26.53;55.95;154329.69;1705002;84;21102;-69
2022/08/24 04:39:40;;;;;;;;;;;;;;;26.55;55.80;154336.22;1704800;84;20129;-69
2022/08/24 04:42:12;;;;;;;;;;;;;;;26.53;56.17;154329.69;1700018;84;20172;-69
2022/08/24 04:44:39;;;;;;;;;;;;;;;26.57;56.81;154341.45;1704899;83;20174;-69
2022/08/24 04:47:07;;;;;;;;;;;;;;;26.60;56.73;154349.31;1705186;84;21413;-70
2022/08/24 04:49:36;;;;;;;;;;;;;;;26.58;55.64;154344.08;1705092;84;20152;-68
2022/08/24 04:52:03;;;;;;;;;;;;;;;26.48;56.36;154317.87;1705364;84;20445;-69
2022/08/24 04:54:34;;;;;;;;;;;;;;;26.43;57.81;154304.78;1704832;84;20201;-69
2022/08/24 04:57:18;;;;;;;;;;;;;;;26.45;56.79;154311.31;1705060;83;20429;-68
2022/08/24 04:59:45;;;;;;;;;;;;;;;26.41;56.58;154300.83;1704875;84;21144;-69
2022/08/24 05:02:12;;;;;;;;;;;;;;;26.46;57.78;154312.64;1705266;84;20433;-61
2022/08/24 05:04:39;;;;;;;;;;;;;;;26.46;57.24;154312.64;1704805;84;20203;-60
2022/08/24 05:07:06;;;;;;;;;;;;;;;26.44;57.69;154308.69;1691842;84;20164;-61
2022/08/24 05:09:33;;;;;;;;;;;;;;;26.44;57.83;154308.69;1706607;84;20504;-59
2022/08/24 05:12:01;;;;;;;;;;;;;;;26.53;57.33;154330.98;1706150;84;21252;-61
2022/08/24 05:14:30;;;;;;;;;;;;;;;26.63;57.46;154354.56;1690180;84;20437;-60
2022/08/24 05:16:57;;;;;;;;;;;;;;;26.64;55.89;154358.52;1705109;84;20177;-62
2022/08/24 05:19:24;;;;;;;;;;;;;;;26.54;56.05;154333.59;1710050;83;20175;-61
2022/08/24 05:21:51;;;;;;;;;;;;;;;26.53;57.29;154330.98;1725476;81;20214;-62
2022/08/24 05:24:18;;;;;;;;;;;;;;;26.53;57.03;154330.98;1725782;81;21165;-62
2022/08/24 05:26:45;;;;;;;;;;;;;;;26.54;57.11;154333.59;1725482;81;20204;-62
2022/08/24 05:29:12;;;;;;;;;;;;;;;26.55;57.11;154336.22;1726013;83;20240;-62
2022/08/24 05:31:44;;;;;;;;;;;;;;;26.51;56.86;154325.73;1724910;83;20207;-61
2022/08/24 05:34:12;;;;;;;;;;;;;;;26.46;57.27;154312.64;1725715;81;20216;-61
2022/08/24 05:36:39;;;;;;;;;;;;;;;26.44;57.70;154307.41;1725325;83;21071;-61
2022/08/24 05:39:10;;;;;;;;;;;;;;;26.48;57.76;154317.87;1725524;83;20236;-62
2022/08/24 05:41:40;;;;;;;;;;;;;;;26.55;57.81;154336.22;1725213;83;20239;-60
2022/08/24 05:44:09;;;;;;;;;;;;;;;26.59;57.34;154345.41;1725857;81;20607;-69
2022/08/24 05:46:36;;;;;;;;;;;;;;;26.69;57.40;154370.33;1725410;83;20553;-69
2022/08/24 05:49:03;;;;;;;;;;;;;;;26.79;57.23;154396.53;1725435;83;21234;-61
2022/08/24 05:51:32;;;;;;;;;;;;;;;26.90;57.68;154422.83;1725166;81;21410;-62
2022/08/24 05:54:02;;;;;;;;;;;;;;;27.01;57.35;154451.66;1724854;83;20766;-61
2022/08/24 05:56:30;;;;;;;;;;;;;;;27.06;56.94;154463.47;1724609;83;20232;-61
2022/08/24 05:58:58;;;;;;;;;;;;;;;26.99;56.98;154447.75;1725568;81;20699;-68
2022/08/24 06:01:25;;;;;;;;;;;;;;;26.92;58.15;154428.08;1725121;81;21121;-69
2022/08/24 06:03:53;;;;;;;;;;;;;;;26.85;58.84;154412.31;1725252;83;20160;-68
2022/08/24 06:06:20;;;;;;;;;;;;;;;27.02;59.35;154455.62;1706366;83;20193;-69
2022/08/24 06:08:49;;;;;;;;;;;;;;;27.23;58.79;154506.75;1696572;84;20292;-69
2022/08/24 06:11:29;;;;;;;;;;;;;;;27.26;59.29;154514.61;1696439;83;20669;-67
2022/08/24 06:14:01;;;;;;;;;;;;;;;27.31;59.83;154527.77;1695466;83;21082;-68
2022/08/24 06:16:30;;;;;;;;;;;;;;;27.38;59.09;154546.11;1694890;83;20226;-68
2022/08/24 06:18:57;;;;;;;;;;;;;;;27.44;58.76;154561.84;1695597;84;20170;-60
2022/08/24 06:21:25;;;;;;;;;;;;;;;27.45;59.11;154563.17;1685271;84;20188;-60
2022/08/24 06:23:52;;;;;;;;;;;;;;;27.49;58.82;154572.31;1704311;84;20180;-61
2022/08/24 06:29:04;;;;;;;;;;;;;;;27.65;58.14;154614.38;1704205;83;20587;-60
2022/08/24 06:31:38;;;;;;;;;;;;;;;27.67;57.31;154619.61;1704018;83;20184;-60
2022/08/24 06:34:05;;;;;;;;;;;;;;;27.66;57.14;154616.98;1704914;83;20160;-60
2022/08/24 06:36:32;;;;;;;;;;;;;;;27.71;57.47;154628.81;1703765;83;20188;-61
2022/08/24 06:38:59;;;;;;;;;;;;;;;27.79;57.50;154648.50;1704028;83;21234;-61
2022/08/24 06:41:26;;;;;;;;;;;;;;;27.87;56.80;154670.81;1695230;84;20239;-61
2022/08/24 06:43:55;;;;;;;;;;;;;;;27.89;56.25;154674.72;1689816;84;20187;-61
2022/08/24 06:46:23;;;;;;;;;;;;;;;27.93;57.07;154683.92;1697894;83;20557;-60
2022/08/24 06:48:51;;;;;;;;;;;;;;;27.94;56.68;154687.83;1697379;83;20175;-60
2022/08/24 06:51:18;;;;;;;;;;;;;;;27.97;56.85;154695.75;1682196;84;21241;-61
2022/08/24 06:53:45;;;;;;;;;;;;;;;28.00;57.03;154703.61;1683717;83;20280;-61
2022/08/24 06:56:13;;;;;;;;;;;;;;;28.03;56.67;154711.47;1693784;84;20170;-60
2022/08/24 06:58:39;;;;;;;;;;;;;;;28.08;56.46;154721.97;1693099;84;20169;-60
2022/08/24 07:01:14;;;;;;;;;;;;;;;28.11;56.00;154729.83;1701533;82;20174;-62
2022/08/24 07:03:42;;;;;;;;;;;;;;;28.13;56.01;154735.06;1681806;83;22522;-59
2022/08/24 07:06:17;;;;;;;;;;;;;;;28.33;55.93;154785.00;1682402;84;20138;-60
2022/08/24 07:08:46;;;;;;;;;;;;;;;28.50;55.40;154829.63;1700035;83;20164;-61
2022/08/24 07:11:14;;;;;;;;;;;;;;;28.53;55.10;154837.50;1704224;84;20132;-61
2022/08/24 07:13:43;;;;;;;;;;;;;;;28.56;55.58;154845.38;1699038;83;20202;-61
2022/08/24 07:16:10;;;;;;;;;;;;;;;28.62;55.16;154858.48;1689108;84;20596;-60
2022/08/24 07:18:37;;;;;;;;;;;;;;;28.57;55.37;154847.98;1700169;82;20189;-61
2022/08/24 07:21:04;;;;;;;;;;;;;;;28.56;55.32;154845.38;1684279;84;20185;-63
2022/08/24 07:23:39;;;;;;;;;;;;;;;28.66;55.43;154870.31;1689939;82;20689;-61
2022/08/24 07:26:08;;;;;;;;;;;;;;;28.79;54.99;154903.17;1686080;84;20166;-61
2022/08/24 07:28:37;;;;;;;;;;;;;;;28.76;54.76;154895.25;1693210;84;21067;-61
2022/08/24 07:31:08;;;;;;;;;;;;;;;28.69;54.59;154878.19;1695814;84;20176;-61
2022/08/24 07:33:37;;;;;;;;;;;;;;;28.67;54.63;154871.66;1678068;84;20520;-60
2022/08/24 07:36:04;;;;;;;;;;;;;;;28.67;55.02;154872.94;1677441;84;20172;-61
2022/08/24 07:38:32;;;;;;;;;;;;;;;28.64;55.35;154863.78;1677336;85;20483;-62
2022/08/24 07:41:01;;;;;;;;;;;;;;;28.59;54.93;154853.23;1691694;84;21236;-61
2022/08/24 07:43:30;;;;;;;;;;;;;;;28.57;55.13;154847.98;1705414;84;20652;-61
2022/08/24 07:45:57;;;;;;;;;;;;;;;28.63;55.02;154862.44;1705443;82;20570;-61
2022/08/24 07:48:27;;;;;;;;;;;;;;;28.71;54.59;154882.14;1705078;84;20174;-61
2022/08/24 07:50:55;;;;;;;;;;;;;;;28.73;53.83;154887.39;1705377;82;20163;-61
2022/08/24 07:53:22;;;;;;;;;;;;;;;28.69;53.21;154876.89;1705567;84;21236;-61
2022/08/24 07:55:54;;;;;;;;;;;;;;;28.59;53.81;154853.23;1705131;84;20202;-62
2022/08/24 07:58:21;;;;;;;;;;;;;;;28.68;54.21;154874.27;1705818;83;20205;-62
2022/08/24 08:00:48;;;;;;;;;;;;;;;28.82;53.76;154911.05;1705660;84;20481;-62
2022/08/24 08:03:15;;;;;;;;;;;;;;;28.79;53.34;154903.17;1705730;82;20206;-61
2022/08/24 08:05:42;;;;;;;;;;;;;;;28.75;53.48;154892.62;1694647;84;21093;-60
2022/08/24 08:08:09;;;;;;;;;;;;;;;28.67;53.14;154872.94;1698110;84;20209;-60
2022/08/24 08:10:36;;;;;;;;;;;;;;;28.58;53.13;154849.33;1677161;84;20188;-60
2022/08/24 08:13:06;;;;;;;;;;;;;;;28.53;53.22;154836.22;1731361;82;20203;-69
2022/08/24 08:15:33;;;;;;;;;;;;;;;28.48;54.00;154823.05;1736044;81;20200;-68
2022/08/24 08:18:01;;;;;;;;;;;;;;;28.45;52.88;154817.81;1729961;82;21427;-68
2022/08/24 08:20:28;;;;;;;;;;;;;;;28.40;52.83;154803.36;1732063;82;20192;-68
2022/08/24 08:25:51;;;;;;;;;;;;;;;28.38;51.60;154798.11;1714685;83;20176;-68
2022/08/24 08:28:19;;;;;;;;;;;;;;;28.26;52.46;154767.94;1717824;83;20422;-68
2022/08/24 08:30:46;;;;;;;;;;;;;;;28.27;52.99;154771.89;1691640;83;21885;-67
2022/08/24 08:33:14;;;;;;;;;;;;;;;28.32;52.66;154783.72;1690868;84;20228;-68
2022/08/24 08:35:43;;;;;;;;;;;;;;;28.36;52.55;154792.88;1690920;83;20170;-68
2022/08/24 08:38:10;;;;;;;;;;;;;;;28.35;51.90;154790.25;1691843;84;20617;-68
2022/08/24 08:40:43;;;;;;;;;;;;;;;28.23;52.01;154761.39;1685959;83;20191;-69
2022/08/24 08:43:31;;;;;;;;;;;;;;;28.19;52.00;154750.91;1686490;85;21264;-68
2022/08/24 08:46:10;;;;;;;;;;;;;;;28.24;51.74;154764.02;1686202;85;20187;-69
2022/08/24 08:49:04;;;;;;;;;;;;;;;28.28;52.35;154773.17;1602002;89;20239;-68
2022/08/24 08:52:06;;;;;;;;;;;;;;;28.30;51.46;154779.75;1604550;89;20206;-68
2022/08/24 08:54:40;;;;;;;;;;;;;;;28.24;52.04;154764.02;1660083;84;20191;-69
2022/08/24 08:57:19;;;;;;;;;;;;;;;28.28;51.66;154773.17;1690553;84;21902;-68
2022/08/24 09:00:07;;;;;;;;;;;;;;;28.30;51.56;154779.75;1690791;83;20235;-69
2022/08/24 09:02:55;;;;;;;;;;;;;;;28.33;51.72;154786.34;1691069;84;20380;-69
2022/08/24 09:05:43;;;;;;;;;;;;;;;28.37;52.94;154795.48;1684691;84;20201;-68
2022/08/24 09:08:41;;;;;;;;;;;;;;;28.45;51.73;154816.52;1690188;84;20207;-69
2022/08/24 09:11:26;;;;;;;;;;;;;;;28.43;51.90;154811.28;1693680;83;21247;-68
2022/08/24 09:14:06;;;;;;;;;;;;;;;28.43;51.15;154811.28;1680903;83;20203;-68
2022/08/24 09:16:59;;;;;;;;;;;;;;;28.49;52.10;154827.00;1689656;84;20211;-69
2022/08/24 09:19:46;;;;;;;;;;;;;;;28.54;50.18;154840.13;1690085;84;20198;-69
2022/08/24 09:22:17;;;;;;;;;;;;;;;28.52;49.62;154833.59;1696361;83;20187;-68
2022/08/24 09:24:56;;;;;;;;;;;;;;;28.41;49.79;154807.31;1701903;84;21221;-67
2022/08/24 09:27:56;;;;;;;;;;;;;;;28.35;50.23;154790.25;1703092;84;20532;-70
2022/08/24 09:30:25;;;;;;;;;;;;;;;28.38;49.73;154798.11;1702383;84;20201;-68
2022/08/24 09:33:13;;;;;;;;;;;;;;;28.43;50.71;154812.56;1702735;84;20190;-68
2022/08/24 09:35:52;;;;;;;;;;;;;;;28.54;50.00;154840.13;1702373;84;20620;-70
2022/08/24 09:38:55;;;;;;;;;;;;;;;28.58;50.13;154850.61;1702319;83;21144;-70
2022/08/24 09:41:43;;;;;;;;;;;;;;;28.79;48.70;154903.17;1702569;83;20137;-69
2022/08/24 09:44:26;;;;;;;;;;;;;;;28.93;47.14;154938.61;1669375;84;20159;-69
2022/08/24 09:47:25;;;;;;;;;;;;;;;28.94;46.57;154939.95;1702477;84;20182;-62
2022/08/24 09:50:05;;;;;;;;;;;;;;;28.84;46.97;154916.28;1702829;84;20488;-70
2022/08/24 09:53:09;;;;;;;;;;;;;;;28.75;47.71;154892.62;1691324;84;21288;-70
2022/08/24 09:56:17;;;;;;;;;;;;;;;28.68;47.12;154875.56;1702369;84;20236;-71
2022/08/24 09:58:56;;;;;;;;;;;;;;;28.60;47.95;154855.86;1702698;84;20446;-70
2022/08/24 10:01:28;;;;;;;;;;;;;;;28.56;46.85;154845.38;1702523;84;20202;-69
2022/08/24 10:04:08;;;;;;;;;;;;;;;28.52;47.21;154834.88;1702835;84;20581;-70
2022/08/24 10:07:06;;;;;;;;;;;;;;;28.48;46.91;154824.39;1681259;84;21080;-69
2022/08/24 10:09:59;;;;;;;;;;;;;;;28.53;47.05;154837.50;1673954;84;20175;-69
2022/08/24 10:12:35;;;;;;;;;;;;;;;28.49;47.07;154827.00;1715372;82;20187;-68
2022/08/24 10:15:17;;;;;;;;;;;;;;;28.51;47.27;154832.25;1701398;82;20130;-70
2022/08/24 10:18:17;;;;;;;;;;;;;;;28.51;46.61;154832.25;1704870;82;20130;-70
2022/08/24 10:21:10;;;;;;;;;;;;;;;28.49;46.52;154825.67;1700529;83;21148;-69
2022/08/24 10:23:47;;;;;;;;;;;;;;;28.47;46.29;154821.77;1704873;82;20469;-71
2022/08/24 10:26:20;;;;;;;;;;;;;;;28.47;46.25;154821.77;1681682;84;20186;-70
2022/08/24 10:29:25;;;;;;;;;;;;;;;28.49;46.59;154825.67;1704816;82;20213;-71
2022/08/24 10:31:59;;;;;;;;;;;;;;;28.45;46.03;154816.52;1704079;84;20210;-71
2022/08/24 10:34:59;;;;;;;;;;;;;;;28.43;47.00;154811.28;1703937;84;22260;-71
2022/08/24 10:37:35;;;;;;;;;;;;;;;28.43;46.38;154811.28;1699540;84;20186;-70
2022/08/24 10:40:14;;;;;;;;;;;;;;;28.41;46.64;154807.31;1704891;82;20174;-70
2022/08/24 10:45:40;;;;;;;;;;;;;;;28.45;48.22;154817.81;1699501;84;20430;-70
2022/08/24 10:48:19;;;;;;;;;;;;;;;28.44;48.42;154813.89;1695042;84;21232;-70
2022/08/24 10:51:02;;;;;;;;;;;;;;;28.38;47.89;154798.11;1704828;82;20210;-70
2022/08/24 10:53:30;;;;;;;;;;;;;;;28.39;48.00;154802.06;1675768;84;20201;-72
2022/08/24 10:56:09;;;;;;;;;;;;;;;28.40;48.11;154803.36;1703630;84;20353;-71
2022/08/24 10:58:51;;;;;;;;;;;;;;;28.40;47.40;154803.36;1704224;84;20186;-70
2022/08/24 11:01:32;;;;;;;;;;;;;;;28.31;47.33;154782.37;1705202;84;21149;-70
2022/08/24 11:04:08;;;;;;;;;;;;;;;28.20;47.84;154753.53;1679351;84;20146;-71
2022/08/24 11:06:40;;;;;;;;;;;;;;;28.14;49.16;154737.69;1684408;84;20287;-71
2022/08/24 11:09:13;;;;;;;;;;;;;;;28.12;49.89;154732.45;1678356;85;20152;-72
2022/08/24 11:11:43;;;;;;;;;;;;;;;28.15;49.82;154741.70;1698150;82;20167;-71
2022/08/24 11:14:22;;;;;;;;;;;;;;;28.20;49.50;154753.53;1705881;82;20634;-69
2022/08/24 11:16:49;;;;;;;;;;;;;;;28.22;49.69;154757.44;1704071;82;20463;-72
2022/08/24 11:19:33;;;;;;;;;;;;;;;28.22;50.41;154757.44;1727382;82;20123;-71
2022/08/24 11:22:04;;;;;;;;;;;;;;;28.20;49.38;154753.53;1729065;82;20476;-71
2022/08/24 11:24:40;;;;;;;;;;;;;;;28.19;50.48;154750.91;1718646;83;20120;-60
2022/08/24 11:27:10;;;;;;;;;;;;;;;28.14;50.13;154737.69;1718330;83;21241;-62
2022/08/24 11:29:53;;;;;;;;;;;;;;;28.12;50.73;154733.78;1717143;83;20180;-61
2022/08/24 11:32:39;;;;;;;;;;;;;;;28.14;50.21;154737.69;1718583;83;20136;-61
2022/08/24 11:35:09;;;;;;;;;;;;;;;28.13;50.72;154736.41;1695437;83;20486;-62
2022/08/24 11:37:37;;;;;;;;;;;;;;;28.13;50.94;154735.06;1718211;83;20172;-61
2022/08/24 11:40:08;;;;;;;;;;;;;;;28.11;51.71;154729.83;1719159;83;21168;-61
2022/08/24 11:42:56;;;;;;;;;;;;;;;28.09;51.81;154724.58;1719130;83;20196;-61
2022/08/24 11:45:41;;;;;;;;;;;;;;;28.05;52.37;154714.09;1718448;83;20176;-61
2022/08/24 11:48:30;;;;;;;;;;;;;;;28.05;52.78;154714.09;1715178;83;20200;-61
2022/08/24 11:51:03;;;;;;;;;;;;;;;28.05;52.81;154714.09;1690831;84;20145;-61
2022/08/24 11:53:52;;;;;;;;;;;;;;;28.07;52.94;154720.63;1691269;83;21089;-61
2022/08/24 11:56:31;;;;;;;;;;;;;;;28.08;52.17;154723.30;1684196;84;20183;-61
2022/08/24 11:59:07;;;;;;;;;;;;;;;28.08;52.72;154721.97;1691538;83;20171;-71
2022/08/24 12:01:49;;;;;;;;;;;;;;;28.07;53.19;154720.63;1689699;84;20175;-72
2022/08/24 12:04:34;;;;;;;;;;;;;;;28.10;53.37;154727.20;1690494;83;20183;-71
2022/08/24 12:07:11;;;;;;;;;;;;;;;28.10;51.87;154728.53;1681172;84;21845;-71
2022/08/24 12:09:41;;;;;;;;;;;;;;;28.09;50.92;154724.58;1690548;83;20171;-61
2022/08/24 12:12:17;;;;;;;;;;;;;;;28.09;51.00;154724.58;1700124;83;20455;-61
2022/08/24 12:14:59;;;;;;;;;;;;;;;28.08;50.96;154721.97;1690810;84;20214;-61
2022/08/24 12:17:42;;;;;;;;;;;;;;;28.13;51.57;154735.06;1690802;84;20122;-61
2022/08/24 12:20:35;;;;;;;;;;;;;;;28.15;51.86;154740.31;1695712;83;21269;-61
2022/08/24 12:23:04;;;;;;;;;;;;;;;28.19;52.38;154750.91;1698563;83;20201;-62
2022/08/24 12:26:14;;;;;;;;;;;;;;;28.19;52.11;154750.91;1702162;84;20538;-60
2022/08/24 12:28:04;;;;;;;;;;;;;;;28.20;52.35;154753.53;1667622;84;21781;-61
2022/08/24 12:30:31;;;;;;;;;;;;;;;28.22;52.98;154758.78;1701778;84;20899;-61
2022/08/24 12:33:01;;;;;;;;;;;;;;;28.25;52.79;154766.64;1701773;84;21187;-61
2022/08/24 12:35:46;;;;;;;;;;;;;;;28.26;52.67;154769.27;1693306;83;20462;-60
2022/08/24 12:38:22;;;;;;;;;;;;;;;28.25;53.31;154766.64;1701497;84;20170;-71
2022/08/24 12:41:09;;;;;;;;;;;;;;;28.20;53.26;154753.53;1701918;84;20211;-71
2022/08/24 12:43:41;;;;;;;;;;;;;;;28.19;53.74;154749.56;1702485;83;20209;-70
2022/08/24 12:46:08;;;;;;;;;;;;;;;28.19;54.61;154750.91;1702039;83;22772;-71
2022/08/24 12:48:38;;;;;;;;;;;;;;;28.18;55.68;154746.94;1700934;84;20203;-71
2022/08/24 12:51:41;;;;;;;;;;;;;;;28.23;56.68;154760.06;1700959;84;20189;-70
2022/08/24 12:54:30;;;;;;;;;;;;;;;28.25;56.96;154766.64;1701212;83;20234;-70
2022/08/24 12:57:21;;;;;;;;;;;;;;;28.32;55.92;154783.72;1701331;84;20178;-70
2022/08/24 12:59:55;;;;;;;;;;;;;;;28.34;55.05;154788.95;1701003;83;21887;-71
2022/08/24 13:02:24;;;;;;;;;;;;;;;28.35;54.81;154790.25;1702355;84;20185;-71
2022/08/24 13:04:56;;;;;;;;;;;;;;;28.38;54.60;154799.44;1701721;83;20205;-71
2022/08/24 13:07:28;;;;;;;;;;;;;;;28.43;54.19;154811.28;1701624;84;20171;-71
2022/08/24 13:09:58;;;;;;;;;;;;;;;28.48;53.57;154823.05;1701648;84;20226;-71
2022/08/24 13:12:45;;;;;;;;;;;;;;;28.51;52.18;154830.92;1712554;82;21142;-70